Port Star — 3EAS6 — position and weather

sailwx.info

Track history (hours):
 
Tides and Currents Weather Stations Pressure Air Temp Water Temp Dewpoint Dewpoint Depression Visibility Wind Speed Wind Dir Waves Ship Positions

Port Star

Last reported at 2018-Feb-15 22:52 UTC. Time now 2018-Feb-22 05:26 UTC.
Position N 36°32' E 014°02'.

Length 175.5 m; beam 29.4 m.

Type: Ship. MMSI: 356105000.

Date/timePositionNaut miles runAvg speedWind from/ knotsBaromVisibWave heightAir tempDewpointWater temp
2018-Feb-15 22:52N 36°32' E 014°02'512.3
2018-Feb-15 22:29N 36°31' E 014°07'612.1
2018-Feb-15 22:00N 36°29' E 014°14'611.8
2018-Feb-15 21:30N 36°27' E 014°21'611.6
2018-Feb-15 21:00N 36°26' E 014°28'611.7
2018-Feb-15 20:30N 36°26' E 014°36'611.5
2018-Feb-15 19:59N 36°27' E 014°43'  
2018-Feb-12 11:51N 40°58' E 028°54'0 0.1
2018-Feb-12 11:09N 40°58' E 028°54'4 2.0
2018-Feb-12 09:16N 40°59' E 028°59'32710.3
2018-Feb-11 01:23N 46°16' E 030°53'411.5
2018-Feb-11 01:00N 46°20' E 030°55'612.0
2018-Feb-11 00:30N 46°26' E 030°55'511.3
2018-Feb-11 00:01N 46°31' E 030°56'4 8.9
2018-Feb-10 23:30N 46°34' E 031°01'18 9.9
2018-Feb-10 21:43N 46°35' E 031°27'2 8.0
2018-Feb-10 21:28N 46°36' E 031°30'3 7.6
2018-Feb-10 21:00N 46°35' E 031°35'4 8.6
2018-Feb-10 20:31N 46°36' E 031°41'5 9.4
2018-Feb-10 20:00N 46°36' E 031°48'4 8.9
2018-Feb-10 19:31N 46°38' E 031°53'4 7.0
2018-Feb-10 19:00N 46°41' E 031°56'4 7.9
2018-Feb-10 18:31N 46°44' E 031°55'4 7.6
2018-Feb-10 18:01N 46°48' E 031°53'5 9.5
2018-Feb-10 17:30N 46°52' E 031°58'4 8.5
2018-Feb-10 17:01N 46°55' E 032°01'1 2.9
2018-Feb-10 16:29N 46°57' E 032°00'0 0.1
2018-Feb-10 15:59N 46°57' E 032°00'0 0.0
2018-Feb-10 15:29N 46°57' E 032°00'0 0.0
2018-Feb-10 14:59N 46°57' E 032°00'0 0.0
2018-Feb-10 14:29N 46°57' E 032°00'0 0.0
2018-Feb-10 13:59N 46°57' E 032°00'0 0.0
2018-Feb-10 13:29N 46°57' E 032°00'0 0.0
2018-Feb-10 12:59N 46°57' E 032°00'0 0.1
2018-Feb-10 12:29N 46°57' E 032°00'1 1.0
2018-Feb-10 11:59N 46°57' E 031°60'0 0.1
2018-Feb-10 11:29N 46°57' E 031°60'0 0.0
2018-Feb-10 10:59N 46°57' E 031°60'0 0.0
2018-Feb-10 10:29N 46°57' E 031°60'0 0.0
2018-Feb-10 09:59N 46°57' E 031°60'0 0.0
2018-Feb-10 09:29N 46°57' E 031°60'0 0.0
2018-Feb-10 08:59N 46°57' E 031°60'0 0.0
2018-Feb-10 08:29N 46°57' E 031°60'0 0.0
2018-Feb-10 07:59N 46°57' E 031°60'0 0.0
2018-Feb-10 07:29N 46°57' E 031°60'0 0.0
2018-Feb-10 06:59N 46°57' E 031°60'0 0.0
2018-Feb-10 06:29N 46°57' E 031°60'0 0.0
2018-Feb-10 05:59N 46°57' E 031°60'0 0.0
2018-Feb-10 05:29N 46°57' E 031°60'0 0.0
2018-Feb-10 04:59N 46°57' E 031°60'0 0.0
2018-Feb-10 04:29N 46°57' E 031°60'0 0.0
2018-Feb-10 03:59N 46°57' E 031°60'0 0.0
2018-Feb-10 03:29N 46°57' E 031°60'0 0.0
2018-Feb-10 02:59N 46°57' E 031°60'0 0.0
2018-Feb-10 02:29N 46°57' E 031°60'0 0.0
2018-Feb-10 01:59N 46°57' E 031°60'0 0.0
2018-Feb-10 01:29N 46°57' E 031°60'0 0.0
2018-Feb-10 00:59N 46°57' E 031°60'0 0.0
2018-Feb-10 00:29N 46°57' E 031°60'0 0.0
2018-Feb-09 23:59N 46°57' E 031°60'0 0.0
2018-Feb-09 23:29N 46°57' E 031°60'0 0.0
2018-Feb-09 22:59N 46°57' E 031°60'0 0.0
2018-Feb-09 22:44N 46°57' E 031°60'0 0.0
2018-Feb-08 01:29N 46°57' E 031°60'0 0.0
2018-Feb-08 00:59N 46°57' E 031°60'0 0.0
2018-Feb-08 00:29N 46°57' E 031°60'0 0.0
2018-Feb-07 23:59N 46°57' E 031°60'0 0.0
2018-Feb-07 23:29N 46°57' E 031°60'0 0.0
2018-Feb-07 22:59N 46°57' E 031°60'0 0.0
2018-Feb-07 22:29N 46°57' E 031°60'0 0.0
2018-Feb-07 21:59N 46°57' E 031°60'0 0.0
2018-Feb-07 21:29N 46°57' E 031°60'0 0.0
2018-Feb-07 09:29N 46°57' E 031°60'1 1.1
2018-Feb-07 08:59N 46°56' E 032°00'0 0.2
2018-Feb-07 08:29N 46°56' E 032°00'0 0.1
2018-Feb-07 07:59N 46°56' E 031°60'0 0.1
2018-Feb-07 07:29N 46°56' E 031°60'0 0.0
2018-Feb-07 06:59N 46°56' E 031°60'0 0.0
2018-Feb-07 06:29N 46°56' E 031°60'0 0.1
2018-Feb-07 05:59N 46°56' E 031°60'0 0.0
2018-Feb-07 05:29N 46°56' E 032°00'0 0.0
2018-Feb-07 04:59N 46°56' E 032°00'0 0.0
2018-Feb-07 04:29N 46°56' E 032°00'0 0.0
2018-Feb-07 03:59N 46°56' E 032°00'0 0.0
2018-Feb-07 03:29N 46°56' E 032°00'0 0.0
2018-Feb-07 02:59N 46°56' E 031°60'0 0.0
2018-Feb-07 02:29N 46°56' E 032°00'0 0.0
2018-Feb-07 01:59N 46°56' E 032°00'0 0.0
2018-Feb-07 01:29N 46°56' E 031°60'0 0.0
2018-Feb-07 00:59N 46°56' E 031°60'0 0.1
2018-Feb-07 00:29N 46°56' E 031°60'0 0.0
2018-Feb-06 23:59N 46°56' E 031°60'0 0.0
2018-Feb-06 23:29N 46°56' E 031°60'0 0.1
2018-Feb-06 22:59N 46°56' E 031°60'0 0.0
2018-Feb-06 22:29N 46°56' E 031°60'0 0.0
2018-Feb-06 21:59N 46°56' E 031°60'0 0.1
2018-Feb-06 21:29N 46°56' E 032°00'0 0.1
2018-Feb-06 20:59N 46°56' E 032°00'0 0.1
2018-Feb-06 20:29N 46°56' E 032°00'0 0.1
2018-Feb-06 19:59N 46°56' E 032°00'0 0.0
2018-Feb-06 19:29N 46°56' E 032°00'0 0.0
2018-Feb-06 18:59N 46°56' E 032°00'0 0.1
2018-Feb-06 18:29N 46°56' E 032°00'0 0.0
2018-Feb-06 17:59N 46°56' E 032°00'0 0.0
2018-Feb-06 17:29N 46°56' E 032°00'0 0.0
2018-Feb-06 16:59N 46°56' E 032°00'0 0.0
2018-Feb-06 16:29N 46°56' E 032°00'0 0.0
2018-Feb-06 15:59N 46°56' E 032°00'0 0.1
2018-Feb-06 15:29N 46°56' E 032°00'0 0.1
2018-Feb-06 14:59N 46°56' E 032°00'0 0.0
2018-Feb-06 14:29N 46°56' E 032°00'0 0.0
2018-Feb-06 08:35N 46°56' E 032°00'0 0.3
2018-Feb-06 08:29N 46°56' E 032°00'0 0.2
2018-Feb-06 07:59N 46°56' E 031°60'0 0.1
2018-Feb-06 07:26N 46°56' E 031°60'0 0.1
2018-Feb-06 06:59N 46°56' E 031°60'0 0.1
2018-Feb-06 06:29N 46°56' E 031°60'0 0.1
2018-Feb-06 05:59N 46°56' E 032°00'0 0.1
2018-Feb-06 05:29N 46°56' E 032°00'0 0.1
2018-Feb-06 04:59N 46°56' E 032°00'0 0.0
2018-Feb-06 04:29N 46°56' E 031°60'0 0.3
2018-Feb-06 03:59N 46°56' E 032°00'0 0.1
2018-Feb-06 03:29N 46°56' E 032°00'0 0.0
2018-Feb-06 02:59N 46°56' E 032°00'0 0.0
2018-Feb-06 02:29N 46°56' E 032°00'0 0.0
2018-Feb-06 01:59N 46°56' E 032°00'0 0.0
2018-Feb-06 01:29N 46°56' E 032°00'0 0.0
2018-Feb-06 00:59N 46°56' E 032°00'0 0.0
2018-Feb-06 00:29N 46°56' E 032°00'0 0.1
2018-Feb-05 23:59N 46°56' E 032°00'0 0.0
2018-Feb-05 23:29N 46°56' E 032°00'0 0.0
2018-Feb-05 22:59N 46°56' E 032°00'  
Track history (hours):
 
Tides and Currents Weather Stations Pressure Air Temp Water Temp Dewpoint Dewpoint Depression Visibility Wind Speed Wind Dir Waves Ship Positions

Port Star

Last reported at 2018-Feb-15 22:52 UTC. Time now 2018-Feb-22 05:26 UTC.
Position N 36°32' E 014°02'.

Length 175.5 m; beam 29.4 m.

Type: Ship. MMSI: 356105000.

Date/timePositionNaut miles runAvg speedWind from/ knotsBaromVisibWave heightAir tempDewpointWater temp
2018-Feb-15 22:52N 36°32' E 014°02'512.3
2018-Feb-15 22:29N 36°31' E 014°07'612.1
2018-Feb-15 22:00N 36°29' E 014°14'611.8
2018-Feb-15 21:30N 36°27' E 014°21'611.6
2018-Feb-15 21:00N 36°26' E 014°28'611.7
2018-Feb-15 20:30N 36°26' E 014°36'611.5
2018-Feb-15 19:59N 36°27' E 014°43'  
2018-Feb-12 11:51N 40°58' E 028°54'0 0.1
2018-Feb-12 11:09N 40°58' E 028°54'4 2.0
2018-Feb-12 09:16N 40°59' E 028°59'32710.3
2018-Feb-11 01:23N 46°16' E 030°53'411.5
2018-Feb-11 01:00N 46°20' E 030°55'612.0
2018-Feb-11 00:30N 46°26' E 030°55'511.3
2018-Feb-11 00:01N 46°31' E 030°56'4 8.9
2018-Feb-10 23:30N 46°34' E 031°01'18 9.9
2018-Feb-10 21:43N 46°35' E 031°27'2 8.0
2018-Feb-10 21:28N 46°36' E 031°30'3 7.6
2018-Feb-10 21:00N 46°35' E 031°35'4 8.6
2018-Feb-10 20:31N 46°36' E 031°41'5 9.4
2018-Feb-10 20:00N 46°36' E 031°48'4 8.9
2018-Feb-10 19:31N 46°38' E 031°53'4 7.0
2018-Feb-10 19:00N 46°41' E 031°56'4 7.9
2018-Feb-10 18:31N 46°44' E 031°55'4 7.6
2018-Feb-10 18:01N 46°48' E 031°53'5 9.5
2018-Feb-10 17:30N 46°52' E 031°58'4 8.5
2018-Feb-10 17:01N 46°55' E 032°01'1 2.9
2018-Feb-10 16:29N 46°57' E 032°00'0 0.1
2018-Feb-10 15:59N 46°57' E 032°00'0 0.0
2018-Feb-10 15:29N 46°57' E 032°00'0 0.0
2018-Feb-10 14:59N 46°57' E 032°00'0 0.0
2018-Feb-10 14:29N 46°57' E 032°00'0 0.0
2018-Feb-10 13:59N 46°57' E 032°00'0 0.0
2018-Feb-10 13:29N 46°57' E 032°00'0 0.0
2018-Feb-10 12:59N 46°57' E 032°00'0 0.1
2018-Feb-10 12:29N 46°57' E 032°00'1 1.0
2018-Feb-10 11:59N 46°57' E 031°60'0 0.1
2018-Feb-10 11:29N 46°57' E 031°60'0 0.0
2018-Feb-10 10:59N 46°57' E 031°60'0 0.0
2018-Feb-10 10:29N 46°57' E 031°60'0 0.0
2018-Feb-10 09:59N 46°57' E 031°60'0 0.0
2018-Feb-10 09:29N 46°57' E 031°60'0 0.0
2018-Feb-10 08:59N 46°57' E 031°60'0 0.0
2018-Feb-10 08:29N 46°57' E 031°60'0 0.0
2018-Feb-10 07:59N 46°57' E 031°60'0 0.0
2018-Feb-10 07:29N 46°57' E 031°60'0 0.0
2018-Feb-10 06:59N 46°57' E 031°60'0 0.0
2018-Feb-10 06:29N 46°57' E 031°60'0 0.0
2018-Feb-10 05:59N 46°57' E 031°60'0 0.0
2018-Feb-10 05:29N 46°57' E 031°60'0 0.0
2018-Feb-10 04:59N 46°57' E 031°60'0 0.0
2018-Feb-10 04:29N 46°57' E 031°60'0 0.0
2018-Feb-10 03:59N 46°57' E 031°60'0 0.0
2018-Feb-10 03:29N 46°57' E 031°60'0 0.0
2018-Feb-10 02:59N 46°57' E 031°60'0 0.0
2018-Feb-10 02:29N 46°57' E 031°60'0 0.0
2018-Feb-10 01:59N 46°57' E 031°60'0 0.0
2018-Feb-10 01:29N 46°57' E 031°60'0 0.0
2018-Feb-10 00:59N 46°57' E 031°60'0 0.0
2018-Feb-10 00:29N 46°57' E 031°60'0 0.0
2018-Feb-09 23:59N 46°57' E 031°60'0 0.0
2018-Feb-09 23:29N 46°57' E 031°60'0 0.0
2018-Feb-09 22:59N 46°57' E 031°60'0 0.0
2018-Feb-09 22:44N 46°57' E 031°60'0 0.0
2018-Feb-08 01:29N 46°57' E 031°60'0 0.0
2018-Feb-08 00:59N 46°57' E 031°60'0 0.0
2018-Feb-08 00:29N 46°57' E 031°60'0 0.0
2018-Feb-07 23:59N 46°57' E 031°60'0 0.0
2018-Feb-07 23:29N 46°57' E 031°60'0 0.0
2018-Feb-07 22:59N 46°57' E 031°60'0 0.0
2018-Feb-07 22:29N 46°57' E 031°60'0 0.0
2018-Feb-07 21:59N 46°57' E 031°60'0 0.0
2018-Feb-07 21:29N 46°57' E 031°60'0 0.0
2018-Feb-07 09:29N 46°57' E 031°60'1 1.1
2018-Feb-07 08:59N 46°56' E 032°00'0 0.2
2018-Feb-07 08:29N 46°56' E 032°00'0 0.1
2018-Feb-07 07:59N 46°56' E 031°60'0 0.1
2018-Feb-07 07:29N 46°56' E 031°60'0 0.0
2018-Feb-07 06:59N 46°56' E 031°60'0 0.0
2018-Feb-07 06:29N 46°56' E 031°60'0 0.1
2018-Feb-07 05:59N 46°56' E 031°60'0 0.0
2018-Feb-07 05:29N 46°56' E 032°00'0 0.0
2018-Feb-07 04:59N 46°56' E 032°00'0 0.0
2018-Feb-07 04:29N 46°56' E 032°00'0 0.0
2018-Feb-07 03:59N 46°56' E 032°00'0 0.0
2018-Feb-07 03:29N 46°56' E 032°00'0 0.0
2018-Feb-07 02:59N 46°56' E 031°60'0 0.0
2018-Feb-07 02:29N 46°56' E 032°00'0 0.0
2018-Feb-07 01:59N 46°56' E 032°00'0 0.0
2018-Feb-07 01:29N 46°56' E 031°60'0 0.0
2018-Feb-07 00:59N 46°56' E 031°60'0 0.1
2018-Feb-07 00:29N 46°56' E 031°60'0 0.0
2018-Feb-06 23:59N 46°56' E 031°60'0 0.0
2018-Feb-06 23:29N 46°56' E 031°60'0 0.1
2018-Feb-06 22:59N 46°56' E 031°60'0 0.0
2018-Feb-06 22:29N 46°56' E 031°60'0 0.0
2018-Feb-06 21:59N 46°56' E 031°60'0 0.1
2018-Feb-06 21:29N 46°56' E 032°00'0 0.1
2018-Feb-06 20:59N 46°56' E 032°00'0 0.1
2018-Feb-06 20:29N 46°56' E 032°00'0 0.1
2018-Feb-06 19:59N 46°56' E 032°00'0 0.0
2018-Feb-06 19:29N 46°56' E 032°00'0 0.0
2018-Feb-06 18:59N 46°56' E 032°00'0 0.1
2018-Feb-06 18:29N 46°56' E 032°00'0 0.0
2018-Feb-06 17:59N 46°56' E 032°00'0 0.0
2018-Feb-06 17:29N 46°56' E 032°00'0 0.0
2018-Feb-06 16:59N 46°56' E 032°00'0 0.0
2018-Feb-06 16:29N 46°56' E 032°00'0 0.0
2018-Feb-06 15:59N 46°56' E 032°00'0 0.1
2018-Feb-06 15:29N 46°56' E 032°00'0 0.1
2018-Feb-06 14:59N 46°56' E 032°00'0 0.0
2018-Feb-06 14:29N 46°56' E 032°00'0 0.0
2018-Feb-06 08:35N 46°56' E 032°00'0 0.3
2018-Feb-06 08:29N 46°56' E 032°00'0 0.2
2018-Feb-06 07:59N 46°56' E 031°60'0 0.1
2018-Feb-06 07:26N 46°56' E 031°60'0 0.1
2018-Feb-06 06:59N 46°56' E 031°60'0 0.1
2018-Feb-06 06:29N 46°56' E 031°60'0 0.1
2018-Feb-06 05:59N 46°56' E 032°00'0 0.1
2018-Feb-06 05:29N 46°56' E 032°00'0 0.1
2018-Feb-06 04:59N 46°56' E 032°00'0 0.0
2018-Feb-06 04:29N 46°56' E 031°60'0 0.3
2018-Feb-06 03:59N 46°56' E 032°00'0 0.1
2018-Feb-06 03:29N 46°56' E 032°00'0 0.0
2018-Feb-06 02:59N 46°56' E 032°00'0 0.0
2018-Feb-06 02:29N 46°56' E 032°00'0 0.0
2018-Feb-06 01:59N 46°56' E 032°00'0 0.0
2018-Feb-06 01:29N 46°56' E 032°00'0 0.0
2018-Feb-06 00:59N 46°56' E 032°00'0 0.0
2018-Feb-06 00:29N 46°56' E 032°00'0 0.1
2018-Feb-05 23:59N 46°56' E 032°00'0 0.0
2018-Feb-05 23:29N 46°56' E 032°00'0 0.0
2018-Feb-05 22:59N 46°56' E 032°00'  

Dump ship's entire track history